sensor_id;sensor_type;location;lat;lon;timestamp;pressure;altitude;pressure_sealevel;temperature;humidity
10988;BME280;5547;42.672;23.230;2023-02-12T00:02:55;94297.28;;;-2.46;50.39
10988;BME280;5547;42.672;23.230;2023-02-12T00:06:00;94293.19;;;-2.38;48.32
10988;BME280;5547;42.672;23.230;2023-02-12T00:09:01;94296.66;;;-2.51;50.46
10988;BME280;5547;42.672;23.230;2023-02-12T00:12:02;94301.94;;;-2.34;49.97
10988;BME280;5547;42.672;23.230;2023-02-12T00:15:02;94293.56;;;-2.31;48.80
10988;BME280;5547;42.672;23.230;2023-02-12T00:18:03;94273.38;;;-2.70;50.23
10988;BME280;5547;42.672;23.230;2023-02-12T00:21:04;94295.56;;;-2.73;50.73
10988;BME280;5547;42.672;23.230;2023-02-12T00:24:05;94248.44;;;-3.08;51.21
10988;BME280;5547;42.672;23.230;2023-02-12T00:27:05;94293.03;;;-2.42;50.67
10988;BME280;5547;42.672;23.230;2023-02-12T00:30:06;94301.00;;;-2.38;50.21
10988;BME280;5547;42.672;23.230;2023-02-12T00:33:07;94292.06;;;-2.46;50.47
10988;BME280;5547;42.672;23.230;2023-02-12T00:36:09;94259.84;;;-2.59;49.95
10988;BME280;5547;42.672;23.230;2023-02-12T00:39:10;94283.03;;;-2.48;50.00
10988;BME280;5547;42.672;23.230;2023-02-12T00:42:11;94277.81;;;-2.48;50.12
10988;BME280;5547;42.672;23.230;2023-02-12T00:45:11;94268.34;;;-2.44;50.20
10988;BME280;5547;42.672;23.230;2023-02-12T00:48:12;94241.00;;;-2.56;49.55
10988;BME280;5547;42.672;23.230;2023-02-12T00:51:13;94262.31;;;-2.54;50.57
10988;BME280;5547;42.672;23.230;2023-02-12T00:54:13;94260.47;;;-2.53;50.82
10988;BME280;5547;42.672;23.230;2023-02-12T00:57:14;94239.09;;;-2.64;50.75
10988;BME280;5547;42.672;23.230;2023-02-12T01:00:15;94241.75;;;-2.55;50.79
10988;BME280;5547;42.672;23.230;2023-02-12T01:03:16;94243.47;;;-2.50;51.36
10988;BME280;5547;42.672;23.230;2023-02-12T01:06:17;94232.44;;;-2.56;52.00
10988;BME280;5547;42.672;23.230;2023-02-12T01:09:17;94225.72;;;-2.71;52.84
10988;BME280;5547;42.672;23.230;2023-02-12T01:12:17;94242.28;;;-2.44;50.98
10988;BME280;5547;42.672;23.230;2023-02-12T01:15:19;94246.03;;;-2.59;51.93
10988;BME280;5547;42.672;23.230;2023-02-12T01:18:19;94179.97;;;-2.94;51.91
10988;BME280;5547;42.672;23.230;2023-02-12T01:21:23;94240.06;;;-2.28;51.34
10988;BME280;5547;42.672;23.230;2023-02-12T01:24:23;94250.66;;;-2.25;51.10
10988;BME280;5547;42.672;23.230;2023-02-12T01:27:24;94215.63;;;-2.41;51.30
10988;BME280;5547;42.672;23.230;2023-02-12T01:30:24;94244.19;;;-2.27;51.19
10988;BME280;5547;42.672;23.230;2023-02-12T01:33:25;94250.41;;;-2.15;50.78
10988;BME280;5547;42.672;23.230;2023-02-12T01:36:27;94246.63;;;-2.00;50.46
10988;BME280;5547;42.672;23.230;2023-02-12T01:39:27;94237.72;;;-1.99;51.87
10988;BME280;5547;42.672;23.230;2023-02-12T01:42:28;94240.63;;;-2.00;51.08
10988;BME280;5547;42.672;23.230;2023-02-12T01:45:44;94205.16;;;-2.19;51.43
10988;BME280;5547;42.672;23.230;2023-02-12T01:48:47;94211.00;;;-2.13;51.76
10988;BME280;5547;42.672;23.230;2023-02-12T01:51:50;94189.34;;;-2.22;51.45
10988;BME280;5547;42.672;23.230;2023-02-12T01:54:55;94172.75;;;-2.35;52.23
10988;BME280;5547;42.672;23.230;2023-02-12T01:57:57;94193.41;;;-2.39;52.78
10988;BME280;5547;42.672;23.230;2023-02-12T02:00:59;94196.69;;;-2.33;52.55
10988;BME280;5547;42.672;23.230;2023-02-12T02:04:05;94223.59;;;-2.06;51.79
10988;BME280;5547;42.672;23.230;2023-02-12T02:07:08;94211.06;;;-2.36;53.17
10988;BME280;5547;42.672;23.230;2023-02-12T02:10:10;94224.16;;;-2.18;53.32
10988;BME280;5547;42.672;23.230;2023-02-12T02:13:10;94235.63;;;-2.28;53.67
10988;BME280;5547;42.672;23.230;2023-02-12T02:16:33;94223.09;;;-2.48;53.83
10988;BME280;5547;42.672;23.230;2023-02-12T02:20:19;94226.66;;;-2.44;54.44
10988;BME280;5547;42.672;23.230;2023-02-12T02:23:47;94226.38;;;-2.34;53.68
10988;BME280;5547;42.672;23.230;2023-02-12T02:40:11;94169.78;;;-2.51;55.71
10988;BME280;5547;42.672;23.230;2023-02-12T02:43:20;94158.38;;;-2.64;56.76
10988;BME280;5547;42.672;23.230;2023-02-12T02:46:42;94214.63;;;-2.23;56.88
10988;BME280;5547;42.672;23.230;2023-02-12T02:49:53;94214.25;;;-2.07;55.93
10988;BME280;5547;42.672;23.230;2023-02-12T02:53:01;94207.03;;;-2.02;55.59
10988;BME280;5547;42.672;23.230;2023-02-12T02:56:06;94220.72;;;-1.96;56.51
10988;BME280;5547;42.672;23.230;2023-02-12T02:59:15;94208.56;;;-2.09;57.09
10988;BME280;5547;42.672;23.230;2023-02-12T03:02:25;94159.41;;;-2.42;57.06
10988;BME280;5547;42.672;23.230;2023-02-12T03:05:32;94190.47;;;-2.15;56.94
10988;BME280;5547;42.672;23.230;2023-02-12T03:08:38;94212.91;;;-1.96;58.11
10988;BME280;5547;42.672;23.230;2023-02-12T03:11:41;94222.44;;;-1.83;55.94
10988;BME280;5547;42.672;23.230;2023-02-12T03:14:46;94187.28;;;-1.94;55.92
10988;BME280;5547;42.672;23.230;2023-02-12T03:17:50;94204.06;;;-1.60;55.60
10988;BME280;5547;42.672;23.230;2023-02-12T03:20:57;94211.59;;;-1.67;56.30
10988;BME280;5547;42.672;23.230;2023-02-12T03:24:17;94205.28;;;-1.66;56.70
10988;BME280;5547;42.672;23.230;2023-02-12T03:27:30;94202.84;;;-1.63;56.33
10988;BME280;5547;42.672;23.230;2023-02-12T03:30:41;94206.41;;;-1.50;55.52
10988;BME280;5547;42.672;23.230;2023-02-12T03:36:59;94193.97;;;-1.44;55.81
10988;BME280;5547;42.672;23.230;2023-02-12T03:40:15;94205.16;;;-1.53;57.16
10988;BME280;5547;42.672;23.230;2023-02-12T03:43:53;94193.94;;;-1.53;56.72
10988;BME280;5547;42.672;23.230;2023-02-12T03:47:03;94197.81;;;-1.42;55.79
10988;BME280;5547;42.672;23.230;2023-02-12T03:50:25;94204.41;;;-1.44;57.19
10988;BME280;5547;42.672;23.230;2023-02-12T03:53:28;94201.50;;;-1.43;56.26
10988;BME280;5547;42.672;23.230;2023-02-12T03:56:37;94180.13;;;-1.62;57.36
10988;BME280;5547;42.672;23.230;2023-02-12T03:59:39;94155.28;;;-1.77;58.12
10988;BME280;5547;42.672;23.230;2023-02-12T04:02:41;94209.59;;;-1.53;57.82
10988;BME280;5547;42.672;23.230;2023-02-12T04:05:42;94201.78;;;-1.53;58.79
10988;BME280;5547;42.672;23.230;2023-02-12T04:08:42;94185.06;;;-1.61;58.10
10988;BME280;5547;42.672;23.230;2023-02-12T04:15:39;94208.09;;;-1.37;56.23
10988;BME280;5547;42.672;23.230;2023-02-12T04:18:46;94208.84;;;-1.45;56.64
10988;BME280;5547;42.672;23.230;2023-02-12T04:22:10;94213.63;;;-1.47;55.75
10988;BME280;5547;42.672;23.230;2023-02-12T04:31:48;94215.31;;;-1.34;54.26
10988;BME280;5547;42.672;23.230;2023-02-12T04:35:01;94227.59;;;-1.25;53.66
10988;BME280;5547;42.672;23.230;2023-02-12T04:38:25;94224.06;;;-1.21;53.69
10988;BME280;5547;42.672;23.230;2023-02-12T04:41:29;94185.84;;;-1.43;53.49
10988;BME280;5547;42.672;23.230;2023-02-12T04:44:36;94215.16;;;-1.37;54.95
10988;BME280;5547;42.672;23.230;2023-02-12T04:47:37;94147.72;;;-1.96;54.90
10988;BME280;5547;42.672;23.230;2023-02-12T04:50:40;94228.50;;;-1.39;55.23
10988;BME280;5547;42.672;23.230;2023-02-12T04:53:41;94238.34;;;-1.36;55.91
10988;BME280;5547;42.672;23.230;2023-02-12T04:56:41;94222.81;;;-1.50;55.85
10988;BME280;5547;42.672;23.230;2023-02-12T04:59:42;94235.56;;;-1.57;56.09
10988;BME280;5547;42.672;23.230;2023-02-12T05:02:43;94183.63;;;-1.84;55.92
10988;BME280;5547;42.672;23.230;2023-02-12T05:05:43;94202.09;;;-1.63;54.52
10988;BME280;5547;42.672;23.230;2023-02-12T05:08:43;94216.03;;;-1.51;54.87
10988;BME280;5547;42.672;23.230;2023-02-12T05:11:44;94242.00;;;-1.37;54.49
10988;BME280;5547;42.672;23.230;2023-02-12T05:14:45;94258.13;;;-1.35;54.64
10988;BME280;5547;42.672;23.230;2023-02-12T05:17:46;94215.88;;;-1.63;54.47
10988;BME280;5547;42.672;23.230;2023-02-12T05:20:54;94257.97;;;-1.47;55.31
10988;BME280;5547;42.672;23.230;2023-02-12T05:24:00;94279.47;;;-1.50;56.74
10988;BME280;5547;42.672;23.230;2023-02-12T05:27:01;94262.66;;;-1.66;58.63
10988;BME280;5547;42.672;23.230;2023-02-12T05:30:01;94267.81;;;-1.93;59.95
10988;BME280;5547;42.672;23.230;2023-02-12T05:33:02;94283.63;;;-1.89;61.36
10988;BME280;5547;42.672;23.230;2023-02-12T05:36:04;94295.38;;;-2.00;62.57
10988;BME280;5547;42.672;23.230;2023-02-12T05:39:05;94280.75;;;-2.19;64.11
10988;BME280;5547;42.672;23.230;2023-02-12T05:42:06;94280.63;;;-2.36;64.44
10988;BME280;5547;42.672;23.230;2023-02-12T05:45:07;94300.16;;;-2.25;65.44
10988;BME280;5547;42.672;23.230;2023-02-12T05:48:08;94297.69;;;-2.30;65.74
10988;BME280;5547;42.672;23.230;2023-02-12T05:51:12;94305.22;;;-2.28;66.10
10988;BME280;5547;42.672;23.230;2023-02-12T05:54:13;94301.88;;;-2.20;66.47
10988;BME280;5547;42.672;23.230;2023-02-12T05:57:13;94304.47;;;-2.20;67.08
10988;BME280;5547;42.672;23.230;2023-02-12T06:00:14;94244.31;;;-2.64;69.58
10988;BME280;5547;42.672;23.230;2023-02-12T06:03:15;94275.03;;;-2.52;70.89
10988;BME280;5547;42.672;23.230;2023-02-12T06:06:15;94311.19;;;-2.28;71.51
10988;BME280;5547;42.672;23.230;2023-02-12T06:09:16;94317.59;;;-2.34;73.15
10988;BME280;5547;42.672;23.230;2023-02-12T06:12:17;94309.47;;;-2.33;73.49
10988;BME280;5547;42.672;23.230;2023-02-12T06:15:17;94309.53;;;-2.24;73.77
10988;BME280;5547;42.672;23.230;2023-02-12T06:18:18;94302.97;;;-2.21;74.27
10988;BME280;5547;42.672;23.230;2023-02-12T06:21:20;94280.59;;;-2.45;75.44
10988;BME280;5547;42.672;23.230;2023-02-12T06:24:21;94315.50;;;-2.23;77.04
10988;BME280;5547;42.672;23.230;2023-02-12T06:27:22;94269.19;;;-2.58;81.02
10988;BME280;5547;42.672;23.230;2023-02-12T06:30:22;94306.94;;;-2.46;83.33
10988;BME280;5547;42.672;23.230;2023-02-12T06:33:23;94297.13;;;-2.49;85.02
10988;BME280;5547;42.672;23.230;2023-02-12T06:36:24;94309.63;;;-2.29;84.80
10988;BME280;5547;42.672;23.230;2023-02-12T06:39:25;94310.84;;;-2.35;86.52
10988;BME280;5547;42.672;23.230;2023-02-12T06:42:25;94263.63;;;-2.65;86.74
10988;BME280;5547;42.672;23.230;2023-02-12T06:45:25;94320.88;;;-2.20;85.86
10988;BME280;5547;42.672;23.230;2023-02-12T06:48:27;94296.50;;;-2.24;85.83
10988;BME280;5547;42.672;23.230;2023-02-12T06:51:28;94301.09;;;-2.21;84.56
10988;BME280;5547;42.672;23.230;2023-02-12T06:54:29;94299.25;;;-2.20;83.51
10988;BME280;5547;42.672;23.230;2023-02-12T06:57:30;94266.88;;;-2.28;82.00
10988;BME280;5547;42.672;23.230;2023-02-12T07:00:30;94286.72;;;-2.18;81.27
10988;BME280;5547;42.672;23.230;2023-02-12T07:03:30;94299.59;;;-2.13;79.88
10988;BME280;5547;42.672;23.230;2023-02-12T07:06:33;94301.50;;;-2.05;79.74
10988;BME280;5547;42.672;23.230;2023-02-12T07:09:34;94300.13;;;-2.02;79.31
10988;BME280;5547;42.672;23.230;2023-02-12T07:12:35;94315.84;;;-1.85;80.50
10988;BME280;5547;42.672;23.230;2023-02-12T07:15:38;94301.69;;;-1.93;79.36
10988;BME280;5547;42.672;23.230;2023-02-12T07:18:40;94291.78;;;-1.82;78.46
10988;BME280;5547;42.672;23.230;2023-02-12T07:21:41;94246.78;;;-1.96;78.98
10988;BME280;5547;42.672;23.230;2023-02-12T07:24:45;94242.22;;;-2.30;79.07
10988;BME280;5547;42.672;23.230;2023-02-12T07:27:46;94314.78;;;-1.84;78.27
10988;BME280;5547;42.672;23.230;2023-02-12T07:30:46;94312.78;;;-1.87;77.25
10988;BME280;5547;42.672;23.230;2023-02-12T07:33:47;94316.88;;;-1.95;78.17
10988;BME280;5547;42.672;23.230;2023-02-12T07:36:47;94271.84;;;-2.18;79.06
10988;BME280;5547;42.672;23.230;2023-02-12T07:39:48;94269.13;;;-2.13;78.03
10988;BME280;5547;42.672;23.230;2023-02-12T07:42:54;94314.63;;;-1.79;77.77
10988;BME280;5547;42.672;23.230;2023-02-12T07:45:55;94311.69;;;-1.86;77.65
10988;BME280;5547;42.672;23.230;2023-02-12T07:48:57;94333.84;;;-1.75;77.74
10988;BME280;5547;42.672;23.230;2023-02-12T07:51:58;94314.25;;;-1.63;77.20
10988;BME280;5547;42.672;23.230;2023-02-12T07:54:59;94338.13;;;-1.79;78.20
10988;BME280;5547;42.672;23.230;2023-02-12T07:58:00;94337.63;;;-1.81;78.62
10988;BME280;5547;42.672;23.230;2023-02-12T08:01:13;94295.06;;;-2.07;79.13
10988;BME280;5547;42.672;23.230;2023-02-12T08:04:17;94343.81;;;-1.77;79.08
10988;BME280;5547;42.672;23.230;2023-02-12T08:07:18;94321.19;;;-1.90;79.57
10988;BME280;5547;42.672;23.230;2023-02-12T08:10:18;94327.38;;;-1.77;80.28
10988;BME280;5547;42.672;23.230;2023-02-12T08:13:21;94339.34;;;-1.36;78.72
10988;BME280;5547;42.672;23.230;2023-02-12T08:16:23;94332.91;;;-1.79;80.19
10988;BME280;5547;42.672;23.230;2023-02-12T08:19:24;94334.03;;;-1.62;79.64
10988;BME280;5547;42.672;23.230;2023-02-12T08:22:24;94324.44;;;-1.44;79.14
10988;BME280;5547;42.672;23.230;2023-02-12T08:25:26;94350.09;;;-1.78;80.72
10988;BME280;5547;42.672;23.230;2023-02-12T08:28:26;94329.47;;;-1.88;80.80
10988;BME280;5547;42.672;23.230;2023-02-12T08:31:29;94337.78;;;-1.86;80.97
10988;BME280;5547;42.672;23.230;2023-02-12T08:34:33;94360.06;;;-1.80;81.97
10988;BME280;5547;42.672;23.230;2023-02-12T08:37:34;94365.13;;;-1.75;81.74
10988;BME280;5547;42.672;23.230;2023-02-12T08:40:35;94299.59;;;-2.22;81.36
10988;BME280;5547;42.672;23.230;2023-02-12T08:43:36;94366.66;;;-1.74;82.19
10988;BME280;5547;42.672;23.230;2023-02-12T08:46:39;94374.50;;;-1.74;82.47
10988;BME280;5547;42.672;23.230;2023-02-12T08:49:42;94377.63;;;-1.63;81.68
10988;BME280;5547;42.672;23.230;2023-02-12T08:52:42;94368.78;;;-1.76;82.64
10988;BME280;5547;42.672;23.230;2023-02-12T08:55:49;94384.03;;;-1.69;82.07
10988;BME280;5547;42.672;23.230;2023-02-12T08:58:50;94392.47;;;-1.72;82.72
10988;BME280;5547;42.672;23.230;2023-02-12T09:01:52;94391.00;;;-1.87;83.04
10988;BME280;5547;42.672;23.230;2023-02-12T09:04:53;94393.47;;;-1.82;82.98
10988;BME280;5547;42.672;23.230;2023-02-12T09:07:53;94397.84;;;-1.68;82.78
10988;BME280;5547;42.672;23.230;2023-02-12T09:10:53;94394.31;;;-1.73;83.43
10988;BME280;5547;42.672;23.230;2023-02-12T09:13:55;94392.88;;;-1.79;83.79
10988;BME280;5547;42.672;23.230;2023-02-12T09:16:57;94406.53;;;-1.82;83.70
10988;BME280;5547;42.672;23.230;2023-02-12T09:19:58;94312.69;;;-2.36;83.79
10988;BME280;5547;42.672;23.230;2023-02-12T09:23:00;94198.88;;;-2.80;82.74
10988;BME280;5547;42.672;23.230;2023-02-12T09:26:06;94411.84;;;-1.24;82.33
10988;BME280;5547;42.672;23.230;2023-02-12T09:29:08;94414.03;;;-1.49;82.30
10988;BME280;5547;42.672;23.230;2023-02-12T09:32:09;94412.63;;;-1.55;82.16
10988;BME280;5547;42.672;23.230;2023-02-12T09:35:09;94408.66;;;-1.04;81.45
10988;BME280;5547;42.672;23.230;2023-02-12T09:38:15;94364.94;;;-1.47;80.90
10988;BME280;5547;42.672;23.230;2023-02-12T09:45:07;94379.38;;;-1.50;82.68
10988;BME280;5547;42.672;23.230;2023-02-12T09:48:34;94413.47;;;-1.37;82.03
10988;BME280;5547;42.672;23.230;2023-02-12T09:51:41;94413.47;;;-1.37;82.29
10988;BME280;5547;42.672;23.230;2023-02-12T09:54:44;94383.41;;;-1.35;82.11
10988;BME280;5547;42.672;23.230;2023-02-12T09:57:45;94317.63;;;-1.63;79.73
10988;BME280;5547;42.672;23.230;2023-02-12T10:00:45;94427.28;;;-1.45;82.75
10988;BME280;5547;42.672;23.230;2023-02-12T10:03:48;94384.50;;;-1.98;83.49
10988;BME280;5547;42.672;23.230;2023-02-12T10:07:18;94430.16;;;-1.78;84.64
10988;BME280;5547;42.672;23.230;2023-02-12T10:27:16;94245.00;;;-2.18;82.99
10988;BME280;5547;42.672;23.230;2023-02-12T10:30:21;94415.16;;;-1.01;83.11
10988;BME280;5547;42.672;23.230;2023-02-12T10:33:49;94384.31;;;-0.56;79.93
10988;BME280;5547;42.672;23.230;2023-02-12T10:36:51;94413.22;;;-0.61;80.38
10988;BME280;5547;42.672;23.230;2023-02-12T10:40:31;94385.69;;;-0.76;80.06
10988;BME280;5547;42.672;23.230;2023-02-12T10:43:27;94414.75;;;-0.16;78.31
10988;BME280;5547;42.672;23.230;2023-02-12T10:46:30;94387.78;;;0.27;76.43
10988;BME280;5547;42.672;23.230;2023-02-12T10:49:31;94425.63;;;0.85;74.41
10988;BME280;5547;42.672;23.230;2023-02-12T10:52:38;94437.31;;;0.32;76.26
10988;BME280;5547;42.672;23.230;2023-02-12T10:55:42;94398.41;;;0.30;75.60
10988;BME280;5547;42.672;23.230;2023-02-12T11:01:49;94417.38;;;0.01;76.44
10988;BME280;5547;42.672;23.230;2023-02-12T11:04:52;94432.59;;;0.16;76.47
10988;BME280;5547;42.672;23.230;2023-02-12T11:07:53;94424.41;;;0.82;74.55
10988;BME280;5547;42.672;23.230;2023-02-12T11:10:53;94427.34;;;1.11;73.33
10988;BME280;5547;42.672;23.230;2023-02-12T11:14:13;94430.09;;;0.84;73.79
10988;BME280;5547;42.672;23.230;2023-02-12T11:17:23;94420.66;;;0.54;74.80
10988;BME280;5547;42.672;23.230;2023-02-12T11:20:27;94429.31;;;0.93;74.12
10988;BME280;5547;42.672;23.230;2023-02-12T11:23:34;94426.53;;;1.19;71.69
10988;BME280;5547;42.672;23.230;2023-02-12T11:26:37;94399.97;;;1.29;70.97
10988;BME280;5547;42.672;23.230;2023-02-12T11:29:37;94432.22;;;1.72;69.59
10988;BME280;5547;42.672;23.230;2023-02-12T11:32:38;94415.69;;;1.29;69.70
10988;BME280;5547;42.672;23.230;2023-02-12T11:35:51;94435.41;;;1.98;68.27
10988;BME280;5547;42.672;23.230;2023-02-12T11:38:54;94434.44;;;1.10;71.31
10988;BME280;5547;42.672;23.230;2023-02-12T11:42:22;94431.31;;;2.09;68.64
10988;BME280;5547;42.672;23.230;2023-02-12T11:45:30;94427.88;;;2.30;65.89
10988;BME280;5547;42.672;23.230;2023-02-12T11:48:37;94430.94;;;2.32;65.34
10988;BME280;5547;42.672;23.230;2023-02-12T11:51:38;94421.50;;;2.19;66.85
10988;BME280;5547;42.672;23.230;2023-02-12T11:54:41;94431.00;;;1.48;68.71
10988;BME280;5547;42.672;23.230;2023-02-12T11:57:48;94411.00;;;1.43;68.85
10988;BME280;5547;42.672;23.230;2023-02-12T12:01:34;94424.03;;;1.73;68.99
10988;BME280;5547;42.672;23.230;2023-02-12T12:04:12;94388.91;;;1.65;67.52
10988;BME280;5547;42.672;23.230;2023-02-12T12:07:20;94414.03;;;2.08;66.28
10988;BME280;5547;42.672;23.230;2023-02-12T12:10:35;94407.03;;;1.58;68.22
10988;BME280;5547;42.672;23.230;2023-02-12T12:14:19;94430.09;;;2.40;65.18
10988;BME280;5547;42.672;23.230;2023-02-12T12:17:30;94442.53;;;2.31;65.58
10988;BME280;5547;42.672;23.230;2023-02-12T12:21:02;94384.31;;;2.17;64.52
10988;BME280;5547;42.672;23.230;2023-02-12T12:24:15;94438.88;;;1.90;66.96
10988;BME280;5547;42.672;23.230;2023-02-12T12:27:31;94389.88;;;1.40;68.21
10988;BME280;5547;42.672;23.230;2023-02-12T12:31:11;94442.81;;;1.33;69.05
10988;BME280;5547;42.672;23.230;2023-02-12T12:34:16;94442.84;;;1.24;70.45
10988;BME280;5547;42.672;23.230;2023-02-12T12:37:48;94440.50;;;1.32;69.82
10988;BME280;5547;42.672;23.230;2023-02-12T12:41:01;94441.91;;;1.29;70.38
10988;BME280;5547;42.672;23.230;2023-02-12T12:57:05;94456.78;;;1.46;69.61
10988;BME280;5547;42.672;23.230;2023-02-12T13:10:40;94475.06;;;0.87;72.59
10988;BME280;5547;42.672;23.230;2023-02-12T13:13:48;94473.44;;;0.65;74.00
10988;BME280;5547;42.672;23.230;2023-02-12T13:17:29;94469.94;;;0.34;75.16
10988;BME280;5547;42.672;23.230;2023-02-12T13:20:40;94490.69;;;0.74;74.24
10988;BME280;5547;42.672;23.230;2023-02-12T13:23:50;94476.22;;;0.51;74.23
10988;BME280;5547;42.672;23.230;2023-02-12T13:27:03;94426.66;;;0.46;73.91
10988;BME280;5547;42.672;23.230;2023-02-12T13:33:11;94426.16;;;0.70;73.53
10988;BME280;5547;42.672;23.230;2023-02-12T13:36:15;94416.03;;;0.51;74.03
10988;BME280;5547;42.672;23.230;2023-02-12T13:39:28;94474.16;;;0.82;73.15
10988;BME280;5547;42.672;23.230;2023-02-12T13:55:20;94503.03;;;1.12;73.37
10988;BME280;5547;42.672;23.230;2023-02-12T14:01:37;94500.91;;;0.97;72.13
10988;BME280;5547;42.672;23.230;2023-02-12T14:08:00;94483.88;;;0.73;72.39
10988;BME280;5547;42.672;23.230;2023-02-12T14:11:16;94509.88;;;0.96;73.55
10988;BME280;5547;42.672;23.230;2023-02-12T14:14:31;94514.84;;;0.80;74.09
10988;BME280;5547;42.672;23.230;2023-02-12T14:20:35;94517.75;;;0.78;74.25
10988;BME280;5547;42.672;23.230;2023-02-12T14:23:37;94529.28;;;0.95;73.39
10988;BME280;5547;42.672;23.230;2023-02-12T14:26:38;94532.44;;;0.62;74.75
10988;BME280;5547;42.672;23.230;2023-02-12T14:29:39;94508.44;;;0.43;74.61
10988;BME280;5547;42.672;23.230;2023-02-12T14:36:38;94515.06;;;0.31;75.41
10988;BME280;5547;42.672;23.230;2023-02-12T14:39:42;94551.09;;;0.43;75.57
10988;BME280;5547;42.672;23.230;2023-02-12T14:42:54;94549.69;;;0.54;74.72
10988;BME280;5547;42.672;23.230;2023-02-12T14:49:24;94539.09;;;0.33;75.10
10988;BME280;5547;42.672;23.230;2023-02-12T14:52:29;94544.31;;;0.33;76.16
10988;BME280;5547;42.672;23.230;2023-02-12T14:55:32;94563.88;;;0.36;76.71
10988;BME280;5547;42.672;23.230;2023-02-12T14:58:34;94552.94;;;0.25;76.74
10988;BME280;5547;42.672;23.230;2023-02-12T15:01:35;94552.34;;;0.28;76.47
10988;BME280;5547;42.672;23.230;2023-02-12T15:04:37;94579.13;;;0.43;76.33
10988;BME280;5547;42.672;23.230;2023-02-12T15:07:48;94565.09;;;0.38;76.86
10988;BME280;5547;42.672;23.230;2023-02-12T15:10:54;94574.31;;;0.27;77.22
10988;BME280;5547;42.672;23.230;2023-02-12T15:17:25;94598.81;;;0.40;77.34
10988;BME280;5547;42.672;23.230;2023-02-12T15:20:34;94601.69;;;0.04;78.95
10988;BME280;5547;42.672;23.230;2023-02-12T15:23:40;94610.44;;;-0.10;79.63
10988;BME280;5547;42.672;23.230;2023-02-12T15:26:50;94617.97;;;-0.08;80.04
10988;BME280;5547;42.672;23.230;2023-02-12T15:29:53;94597.00;;;-0.34;80.17
10988;BME280;5547;42.672;23.230;2023-02-12T15:32:57;94631.97;;;-0.13;80.70
10988;BME280;5547;42.672;23.230;2023-02-12T15:36:01;94638.13;;;-0.09;80.57
10988;BME280;5547;42.672;23.230;2023-02-12T15:39:05;94627.00;;;-0.32;81.31
10988;BME280;5547;42.672;23.230;2023-02-12T15:42:34;94633.66;;;-0.57;82.71
10988;BME280;5547;42.672;23.230;2023-02-12T15:45:37;94640.25;;;-0.59;83.41
10988;BME280;5547;42.672;23.230;2023-02-12T15:48:39;94621.25;;;-0.82;84.25
10988;BME280;5547;42.672;23.230;2023-02-12T15:51:40;94644.63;;;-0.77;84.89
10988;BME280;5547;42.672;23.230;2023-02-12T15:54:43;94636.44;;;-0.85;85.32
10988;BME280;5547;42.672;23.230;2023-02-12T15:57:52;94644.69;;;-0.91;85.84
10988;BME280;5547;42.672;23.230;2023-02-12T16:00:55;94586.13;;;-1.44;86.45
10988;BME280;5547;42.672;23.230;2023-02-12T16:04:00;94660.53;;;-1.10;87.64
10988;BME280;5547;42.672;23.230;2023-02-12T16:07:02;94669.78;;;-1.04;87.74
10988;BME280;5547;42.672;23.230;2023-02-12T16:10:03;94676.09;;;-1.05;88.47
10988;BME280;5547;42.672;23.230;2023-02-12T16:13:04;94683.97;;;-1.19;89.02
10988;BME280;5547;42.672;23.230;2023-02-12T16:22:25;94635.69;;;-1.66;90.58
10988;BME280;5547;42.672;23.230;2023-02-12T16:25:29;94679.91;;;-1.48;90.77
10988;BME280;5547;42.672;23.230;2023-02-12T16:28:30;94702.16;;;-1.28;90.60
10988;BME280;5547;42.672;23.230;2023-02-12T16:31:31;94698.44;;;-1.35;90.79
10988;BME280;5547;42.672;23.230;2023-02-12T16:34:36;94710.44;;;-1.48;91.53
10988;BME280;5547;42.672;23.230;2023-02-12T16:40:38;94652.47;;;-2.09;92.13
10988;BME280;5547;42.672;23.230;2023-02-12T16:43:39;94693.97;;;-1.85;92.32
10988;BME280;5547;42.672;23.230;2023-02-12T16:46:59;94711.06;;;-1.79;93.29
10988;BME280;5547;42.672;23.230;2023-02-12T16:50:01;94665.38;;;-2.32;93.15
10988;BME280;5547;42.672;23.230;2023-02-12T16:53:25;94726.22;;;-2.08;93.74
10988;BME280;5547;42.672;23.230;2023-02-12T16:56:28;94690.28;;;-2.53;94.80
10988;BME280;5547;42.672;23.230;2023-02-12T16:59:30;94729.88;;;-2.37;95.12
10988;BME280;5547;42.672;23.230;2023-02-12T17:02:31;94734.34;;;-2.57;97.14
10988;BME280;5547;42.672;23.230;2023-02-12T17:05:32;94667.72;;;-3.23;97.97
10988;BME280;5547;42.672;23.230;2023-02-12T17:08:33;94681.91;;;-3.15;98.76
10988;BME280;5547;42.672;23.230;2023-02-12T17:11:33;94690.16;;;-3.27;99.18
10988;BME280;5547;42.672;23.230;2023-02-12T17:14:34;94755.66;;;-2.87;100.00
10988;BME280;5547;42.672;23.230;2023-02-12T17:17:34;94768.03;;;-2.98;100.00
10988;BME280;5547;42.672;23.230;2023-02-12T17:20:35;94744.63;;;-3.17;100.00
10988;BME280;5547;42.672;23.230;2023-02-12T17:23:35;94764.50;;;-3.21;100.00
10988;BME280;5547;42.672;23.230;2023-02-12T17:26:36;94748.84;;;-3.40;100.00
10988;BME280;5547;42.672;23.230;2023-02-12T17:29:36;94752.34;;;-3.50;100.00
10988;BME280;5547;42.672;23.230;2023-02-12T17:32:37;94738.41;;;-3.78;100.00
10988;BME280;5547;42.672;23.230;2023-02-12T17:35:38;94801.19;;;-3.23;100.00
10988;BME280;5547;42.672;23.230;2023-02-12T17:38:38;94801.81;;;-3.12;100.00
10988;BME280;5547;42.672;23.230;2023-02-12T17:41:39;94772.63;;;-3.28;100.00
10988;BME280;5547;42.672;23.230;2023-02-12T17:44:39;94783.81;;;-3.27;100.00
10988;BME280;5547;42.672;23.230;2023-02-12T17:47:40;94802.09;;;-3.13;100.00
10988;BME280;5547;42.672;23.230;2023-02-12T17:50:41;94800.19;;;-3.27;100.00
10988;BME280;5547;42.672;23.230;2023-02-12T17:53:42;94823.69;;;-3.13;100.00
10988;BME280;5547;42.672;23.230;2023-02-12T17:56:43;94813.78;;;-3.11;100.00
10988;BME280;5547;42.672;23.230;2023-02-12T17:59:43;94809.91;;;-3.13;100.00
10988;BME280;5547;42.672;23.230;2023-02-12T18:02:44;94786.41;;;-3.27;100.00
10988;BME280;5547;42.672;23.230;2023-02-12T18:05:45;94715.69;;;-3.72;100.00
10988;BME280;5547;42.672;23.230;2023-02-12T18:08:46;94798.78;;;-3.19;100.00
10988;BME280;5547;42.672;23.230;2023-02-12T18:11:46;94743.25;;;-3.71;100.00
10988;BME280;5547;42.672;23.230;2023-02-12T18:14:46;94795.63;;;-3.16;100.00
10988;BME280;5547;42.672;23.230;2023-02-12T18:17:47;94668.84;;;-4.10;100.00
10988;BME280;5547;42.672;23.230;2023-02-12T18:20:47;94750.47;;;-3.44;100.00
10988;BME280;5547;42.672;23.230;2023-02-12T18:23:48;94830.25;;;-2.78;100.00